createdAt,value
2019-03-15T00:04:39.798Z,0.78
2019-03-15T00:09:42.303Z,0.90
2019-03-15T00:14:45.502Z,0.75
2019-03-15T00:19:48.830Z,0.80
2019-03-15T00:24:52.005Z,0.80
2019-03-15T00:29:55.017Z,0.50
2019-03-15T00:34:58.238Z,0.55
2019-03-15T00:40:01.454Z,0.62
2019-03-15T00:45:08.168Z,0.70
2019-03-15T00:50:12.720Z,0.60
2019-03-15T00:55:15.777Z,0.70
2019-03-15T01:00:18.848Z,0.70
2019-03-15T01:05:22.012Z,0.70
2019-03-15T01:10:25.234Z,0.70
2019-03-15T01:15:28.338Z,0.80
2019-03-15T01:20:31.458Z,1.45
2019-03-15T01:25:34.627Z,0.55
2019-03-15T01:30:37.685Z,0.68
2019-03-15T01:35:40.867Z,0.60
2019-03-15T01:40:44.212Z,0.70
2019-03-15T01:45:47.251Z,0.50
2019-03-15T01:50:50.810Z,0.57
2019-03-15T01:55:53.951Z,0.50
2019-03-15T02:00:57.078Z,0.70
2019-03-15T02:06:00.339Z,0.60
2019-03-15T02:11:03.718Z,0.70
2019-03-15T02:16:06.992Z,0.60
2019-03-15T02:21:09.985Z,0.70
2019-03-15T02:26:12.931Z,0.40
2019-03-15T02:31:16.017Z,0.53
2019-03-15T02:36:19.336Z,0.50
2019-03-15T02:41:22.494Z,0.40
2019-03-15T02:46:25.950Z,0.50
2019-03-15T02:51:29.420Z,0.50
2019-03-15T02:56:32.482Z,0.37
2019-03-15T03:01:35.545Z,0.50
2019-03-15T03:06:38.812Z,0.40
2019-03-15T03:11:41.906Z,0.40
2019-03-15T03:16:46.043Z,0.57
2019-03-15T03:21:49.521Z,0.40
2019-03-15T03:26:52.678Z,0.40
2019-03-15T03:31:55.652Z,0.40
2019-03-15T03:36:59.227Z,0.40
2019-03-15T03:42:02.962Z,0.50
2019-03-15T03:47:05.995Z,0.90
2019-03-15T03:52:08.974Z,0.60
2019-03-15T03:57:11.922Z,0.60
2019-03-15T04:02:15.165Z,0.40
2019-03-15T04:07:18.517Z,0.40
2019-03-15T04:12:22.154Z,0.50
2019-03-15T04:17:25.454Z,0.57
2019-03-15T04:22:28.808Z,0.50
2019-03-15T04:27:32.215Z,0.40
2019-03-15T04:32:35.371Z,0.50
2019-03-15T04:37:38.947Z,0.56
2019-03-15T04:42:42.125Z,0.70
2019-03-15T04:47:45.313Z,0.60
2019-03-15T04:52:48.437Z,0.50
2019-03-15T04:57:51.648Z,0.70
2019-03-15T05:02:54.747Z,0.77
2019-03-15T05:07:57.803Z,0.70
2019-03-15T05:13:00.897Z,0.80
2019-03-15T05:18:03.885Z,1.10
2019-03-15T05:23:07.090Z,1.00
2019-03-15T05:28:10.129Z,1.20
2019-03-15T05:33:13.250Z,1.30
2019-03-15T05:38:16.214Z,0.95
2019-03-15T05:43:19.223Z,1.77
2019-03-15T05:48:22.187Z,1.45
2019-03-15T05:53:25.296Z,1.98
2019-03-15T05:58:28.441Z,1.98
2019-03-15T06:03:31.526Z,2.58
2019-03-15T06:08:34.919Z,2.33
2019-03-15T06:13:37.879Z,2.20
2019-03-15T06:18:40.964Z,2.30
2019-03-15T06:23:44.014Z,2.72
2019-03-15T06:28:47.103Z,2.33
2019-03-15T06:33:50.179Z,2.40
2019-03-15T06:38:53.244Z,3.47
2019-03-15T06:43:56.344Z,3.70
2019-03-15T06:48:59.360Z,3.72
2019-03-15T06:54:11.280Z,3.55
2019-03-15T06:59:07.322Z,4.28
2019-03-15T07:04:10.397Z,2.52
2019-03-15T07:09:13.485Z,4.92
2019-03-15T07:14:16.857Z,2.72
2019-03-15T07:19:26.449Z,2.87
2019-03-15T07:24:25.806Z,4.30
2019-03-15T07:29:28.985Z,4.25
2019-03-15T07:34:32.034Z,3.40
2019-03-15T07:39:35.034Z,2.75
2019-03-15T07:44:38.145Z,3.72
2019-03-15T07:49:41.420Z,3.02
2019-03-15T07:54:44.644Z,3.15
2019-03-15T07:59:48.006Z,3.40
2019-03-15T08:04:51.071Z,2.65
2019-03-15T08:09:54.193Z,2.62
2019-03-15T08:14:57.291Z,2.87
2019-03-15T08:20:00.528Z,3.45
2019-03-15T08:25:04.729Z,2.77
2019-03-15T08:30:10.532Z,3.17
2019-03-15T08:35:13.837Z,2.90
2019-03-15T08:40:16.920Z,1.90
2019-03-15T08:45:20.065Z,2.55
2019-03-15T08:50:24.568Z,2.30
2019-03-15T08:55:27.944Z,2.58
2019-03-15T09:00:31.118Z,2.10
2019-03-15T09:05:34.216Z,2.02
2019-03-15T09:10:37.303Z,1.60
2019-03-15T09:15:40.426Z,1.57
2019-03-15T09:20:43.417Z,1.67
2019-03-15T09:25:46.809Z,2.00
2019-03-15T09:30:49.918Z,1.95
2019-03-15T09:35:53.126Z,2.05
2019-03-15T09:40:56.405Z,1.87
2019-03-15T09:45:59.547Z,1.87
2019-03-15T09:51:02.755Z,1.67
2019-03-15T09:56:05.992Z,1.75
2019-03-15T10:01:09.339Z,1.72
2019-03-15T10:06:16.576Z,2.50
2019-03-15T10:11:17.833Z,2.30
2019-03-15T10:16:21.102Z,2.70
2019-03-15T10:21:24.394Z,2.45
2019-03-15T10:26:27.549Z,3.30
2019-03-15T10:31:30.579Z,2.90
2019-03-15T10:36:34.751Z,2.20
2019-03-15T10:41:38.420Z,2.40
2019-03-15T10:46:41.740Z,1.00
2019-03-15T10:51:44.756Z,1.30
2019-03-15T10:56:47.936Z,1.05
2019-03-15T11:01:51.420Z,1.32
2019-03-15T11:06:54.820Z,1.80
2019-03-15T11:11:57.996Z,1.73
2019-03-15T11:17:01.587Z,1.20
2019-03-15T11:22:05.038Z,1.92
2019-03-15T11:27:08.075Z,1.87
2019-03-15T11:32:11.099Z,2.50
2019-03-15T11:37:14.286Z,2.50
2019-03-15T11:42:17.760Z,2.17
2019-03-15T11:47:21.084Z,2.40
2019-03-15T11:52:24.421Z,1.35
2019-03-15T11:57:27.526Z,2.55
2019-03-15T12:02:30.584Z,1.95
2019-03-15T12:07:34.010Z,2.83
2019-03-15T12:12:37.161Z,3.00
2019-03-15T12:17:40.392Z,2.17
2019-03-15T12:22:44.273Z,3.17
2019-03-15T12:27:47.327Z,2.30
2019-03-15T12:32:50.277Z,1.92
2019-03-15T12:37:53.693Z,1.70
2019-03-15T12:42:57.150Z,2.22
2019-03-15T12:48:00.249Z,2.45
2019-03-15T12:53:03.572Z,2.85
2019-03-15T12:58:06.766Z,2.77
2019-03-15T13:03:10.220Z,2.70
2019-03-15T13:08:13.504Z,2.25
2019-03-15T13:13:16.627Z,2.17
2019-03-15T13:18:20.130Z,2.20
2019-03-15T13:23:23.322Z,2.47
2019-03-15T13:28:26.535Z,2.15
2019-03-15T13:33:29.655Z,2.17
2019-03-15T13:38:32.645Z,2.10
2019-03-15T13:43:35.631Z,2.08
2019-03-15T13:48:38.787Z,2.30
2019-03-15T13:53:42.125Z,1.95
2019-03-15T13:58:56.621Z,2.10
2019-03-15T14:03:50.348Z,2.15
2019-03-15T14:08:53.473Z,1.82
2019-03-15T14:13:56.991Z,1.55
2019-03-15T14:24:09.787Z,2.60
2019-03-15T14:29:12.915Z,2.20
2019-03-15T14:34:15.992Z,2.22
2019-03-15T14:39:19.419Z,2.00
2019-03-15T14:44:22.683Z,2.42
2019-03-15T14:49:25.762Z,3.05
2019-03-15T14:54:28.938Z,2.80
2019-03-15T14:59:32.226Z,2.75
2019-03-15T15:04:35.184Z,3.47
2019-03-15T15:09:38.545Z,2.92
2019-03-15T15:14:41.638Z,2.75
2019-03-15T15:19:44.723Z,2.90
2019-03-15T15:24:47.954Z,2.30
2019-03-15T15:29:51.074Z,2.65
2019-03-15T15:34:54.174Z,3.58
2019-03-15T15:40:00.027Z,2.67
2019-03-15T15:45:02.440Z,2.83
2019-03-15T15:50:06.659Z,2.52
2019-03-15T15:55:09.990Z,2.70
2019-03-15T16:00:13.405Z,2.20
2019-03-15T16:05:16.620Z,2.75
2019-03-15T16:10:19.719Z,2.62
2019-03-15T16:15:22.847Z,3.00
2019-03-15T16:20:26.252Z,2.37
2019-03-15T16:25:29.411Z,2.02
2019-03-15T16:30:32.398Z,2.25
2019-03-15T16:35:35.580Z,2.45
2019-03-15T16:40:38.886Z,3.35
2019-03-15T16:45:42.005Z,2.92
2019-03-15T16:50:45.611Z,3.12
2019-03-15T16:55:48.925Z,3.08
2019-03-15T17:00:52.047Z,2.92
2019-03-15T17:05:55.473Z,2.87
2019-03-15T17:10:58.883Z,3.92
2019-03-15T17:16:02.104Z,4.45
2019-03-15T17:21:05.503Z,4.12
2019-03-15T17:26:08.798Z,4.25
2019-03-15T17:31:12.039Z,4.80
2019-03-15T17:36:15.070Z,4.25
2019-03-15T17:41:18.142Z,4.53
2019-03-15T17:46:21.558Z,5.00
2019-03-15T17:51:24.778Z,5.00
2019-03-15T17:56:28.230Z,4.40
2019-03-15T18:01:31.433Z,5.12
2019-03-15T18:06:34.912Z,4.37
2019-03-15T18:11:38.016Z,4.75
2019-03-15T18:16:41.200Z,4.65
2019-03-15T18:21:44.333Z,4.33
2019-03-15T18:26:47.640Z,4.42
2019-03-15T18:31:50.732Z,5.20
2019-03-15T18:36:53.833Z,4.47
2019-03-15T18:41:56.820Z,4.70
2019-03-15T18:46:59.850Z,4.22
2019-03-15T18:52:03.004Z,4.95
2019-03-15T18:57:06.534Z,4.35
2019-03-15T19:02:09.555Z,4.90
2019-03-15T19:07:14.165Z,4.33
2019-03-15T19:12:17.366Z,5.05
2019-03-15T19:17:20.751Z,5.92
2019-03-15T19:22:24.151Z,5.22
2019-03-15T19:27:27.278Z,5.07
2019-03-15T19:32:33.333Z,4.83
2019-03-15T19:37:35.306Z,5.25
2019-03-15T19:42:38.817Z,4.23
2019-03-15T19:47:41.972Z,4.72
2019-03-15T19:52:45.048Z,5.05
2019-03-15T19:57:48.212Z,4.85
2019-03-15T20:02:51.429Z,4.75
2019-03-15T20:07:54.363Z,3.87
2019-03-15T20:12:57.618Z,5.03
2019-03-15T20:18:00.649Z,4.92
2019-03-15T20:23:03.719Z,5.00
2019-03-15T20:28:06.724Z,5.03
2019-03-15T20:33:09.946Z,4.37
2019-03-15T20:38:13.173Z,4.72
2019-03-15T20:43:16.113Z,5.03
2019-03-15T20:48:19.375Z,4.60
2019-03-15T20:53:22.592Z,4.53
2019-03-15T20:58:25.574Z,3.02
2019-03-15T21:03:28.623Z,2.50
2019-03-15T21:08:31.794Z,2.72
2019-03-15T21:13:34.786Z,2.35
2019-03-15T21:18:37.923Z,2.27
2019-03-15T21:23:40.916Z,2.42
2019-03-15T21:28:44.135Z,2.20
2019-03-15T21:33:47.356Z,2.30
2019-03-15T21:38:50.449Z,2.05
2019-03-15T21:43:54.423Z,2.10
2019-03-15T21:48:57.612Z,2.40
2019-03-15T21:54:00.675Z,2.35
2019-03-15T21:59:04.558Z,2.77
2019-03-15T22:04:08.075Z,2.20
2019-03-15T22:09:11.250Z,2.33
2019-03-15T22:14:14.495Z,2.40
2019-03-15T22:19:17.911Z,2.60
2019-03-15T22:24:21.002Z,2.27
2019-03-15T22:29:24.092Z,2.30
2019-03-15T22:34:27.528Z,2.35
2019-03-15T22:39:30.847Z,2.80
2019-03-15T22:44:34.347Z,2.87
2019-03-15T22:49:37.543Z,2.72
2019-03-15T22:54:40.968Z,2.65
2019-03-15T22:59:44.060Z,2.92
2019-03-15T23:04:47.062Z,2.22
2019-03-15T23:09:50.147Z,2.33
2019-03-15T23:14:53.134Z,1.92
2019-03-15T23:19:56.399Z,2.17
2019-03-15T23:24:59.367Z,2.52
2019-03-15T23:30:02.786Z,2.12
2019-03-15T23:35:06.273Z,2.12
2019-03-15T23:40:09.734Z,2.02
2019-03-15T23:45:13.051Z,1.98
2019-03-15T23:50:16.250Z,3.37
2019-03-15T23:55:19.499Z,2.02
